Terminal Aerodrome Forecast
Issued by NWS Wilmington, OH

Current Version | Previous Version | Graphics & Text | Print | Product List | Glossary Off
Versions: 1 2 3 4 5 6 7 8 9 10 11 12 13 14 15 16 17 18 19 20 21 22 23 24 25 26 27 28 29 30

862
FTUS41 KILN 181746 CCA
TAFCVG
TAF COR
KCVG 181746Z 1818/1924 27008KT P6SM OVC015
     FM190000 VRB03KT P6SM BKN015
     FM190600 VRB03KT P6SM BKN025
     FM190900 VRB03KT 5SM BR SCT025 BKN250
     FM191300 11007KT P6SM BKN250
     FM191800 11008KT P6SM BKN040
     FM192200 12009KT P6SM VCSH OVC040=

USA.gov is the U.S. government's official web portal to all federal, state and local government web resources and services.